Time;durP1;ratioP1;P1;durP2;ratioP2;P2;SDS_P1;SDS_P2;PMS_P1;PMS_P2;Temp;Humidity;BMP_temperature;BMP_pressure;BME280_temperature;BME280_humidity;BME280_pressure;Samples;Min_cycle;Max_cycle;Signal;HPM_P1;HPM_P2
2023/12/05 00:01:03;;;;;;;;;;;19.10;58.00;;;;;;5036783;28;1215;-69
2023/12/05 00:03:28;;;;;;;;;;;19.10;58.00;;;;;;5036985;28;1416;-69
2023/12/05 00:05:53;;;;;;;;;;;19.10;58.00;;;;;;5037653;28;1910;-69
2023/12/05 00:08:19;;;;;;;;;;;19.10;58.00;;;;;;5068744;28;1257;-69
2023/12/05 00:10:44;;;;;;;;;;;19.10;58.00;;;;;;5034141;28;1561;-69
2023/12/05 00:13:10;;;;;;;;;;;19.10;58.00;;;;;;5037416;28;1419;-69
2023/12/05 00:15:36;;;;;;;;;;;19.10;58.10;;;;;;5036819;28;1552;-69
2023/12/05 00:18:01;;;;;;;;;;;19.10;58.10;;;;;;5036896;28;1695;-69
2023/12/05 00:20:27;;;;;;;;;;;19.10;58.10;;;;;;5039851;28;1406;-69
2023/12/05 00:22:52;;;;;;;;;;;19.10;58.10;;;;;;5037077;28;1356;-69
2023/12/05 00:25:18;;;;;;;;;;;19.10;58.10;;;;;;5036041;28;1975;-69
2023/12/05 00:27:44;;;;;;;;;;;19.10;58.10;;;;;;5036691;28;1517;-69
2023/12/05 00:30:09;;;;;;;;;;;19.10;58.10;;;;;;5038413;28;1175;-69
2023/12/05 00:32:35;;;;;;;;;;;19.10;58.20;;;;;;5036881;28;1345;-69
2023/12/05 00:35:00;;;;;;;;;;;19.10;58.20;;;;;;5035892;28;1167;-69
2023/12/05 00:37:26;;;;;;;;;;;19.10;58.20;;;;;;5036143;28;1626;-69
2023/12/05 00:39:51;;;;;;;;;;;19.10;58.20;;;;;;5037410;28;1256;-69
2023/12/05 00:42:17;;;;;;;;;;;19.10;58.20;;;;;;5038654;28;1388;-69
2023/12/05 00:44:42;;;;;;;;;;;19.10;58.20;;;;;;5038167;28;1906;-69
2023/12/05 00:47:08;;;;;;;;;;;19.10;58.20;;;;;;5035695;28;1363;-69
2023/12/05 00:49:34;;;;;;;;;;;19.10;58.20;;;;;;5033984;28;1447;-69
2023/12/05 00:52:00;;;;;;;;;;;19.10;58.20;;;;;;5037445;28;1435;-69
2023/12/05 00:54:25;;;;;;;;;;;19.10;58.20;;;;;;5035022;28;1305;-69
2023/12/05 00:56:50;;;;;;;;;;;19.10;58.20;;;;;;5035592;28;1375;-69
2023/12/05 00:59:17;;;;;;;;;;;19.10;58.20;;;;;;5043045;28;1355;-69
2023/12/05 01:01:42;;;;;;;;;;;19.10;58.30;;;;;;5040006;28;1367;-69
2023/12/05 01:04:08;;;;;;;;;;;19.10;58.20;;;;;;5041770;28;988;-69
2023/12/05 01:06:33;;;;;;;;;;;19.10;58.20;;;;;;5040122;28;1903;-69
2023/12/05 01:08:58;;;;;;;;;;;19.00;58.20;;;;;;5038609;28;1527;-69
2023/12/05 01:11:24;;;;;;;;;;;19.00;58.20;;;;;;5041033;28;1233;-69
2023/12/05 01:13:50;;;;;;;;;;;19.00;58.20;;;;;;5040424;28;1463;-70
2023/12/05 01:16:15;;;;;;;;;;;19.00;58.20;;;;;;5047622;28;1484;-70
2023/12/05 01:18:41;;;;;;;;;;;19.00;58.20;;;;;;5042728;28;1302;-69
2023/12/05 01:21:07;;;;;;;;;;;19.00;58.20;;;;;;5041726;28;1149;-69
2023/12/05 01:23:32;;;;;;;;;;;19.00;58.30;;;;;;5043671;28;1268;-69
2023/12/05 01:25:57;;;;;;;;;;;19.00;58.30;;;;;;5041764;28;1968;-69
2023/12/05 01:28:23;;;;;;;;;;;19.00;58.20;;;;;;5043005;28;1324;-69
2023/12/05 01:30:49;;;;;;;;;;;19.00;58.30;;;;;;5039428;28;1137;-69
2023/12/05 01:33:14;;;;;;;;;;;19.00;58.30;;;;;;5037290;28;1260;-70
2023/12/05 01:35:40;;;;;;;;;;;19.00;58.30;;;;;;5039057;28;1662;-69
2023/12/05 01:38:05;;;;;;;;;;;19.00;58.30;;;;;;5039382;28;1276;-69
2023/12/05 01:40:31;;;;;;;;;;;19.00;58.30;;;;;;5042905;28;1422;-69
2023/12/05 01:42:56;;;;;;;;;;;19.00;58.30;;;;;;5039636;28;866;-69
2023/12/05 01:45:22;;;;;;;;;;;19.00;58.40;;;;;;5041489;28;1930;-69
2023/12/05 01:47:48;;;;;;;;;;;19.00;58.30;;;;;;5041975;28;1349;-69
2023/12/05 01:50:14;;;;;;;;;;;19.00;58.30;;;;;;5037878;28;1082;-69
2023/12/05 01:52:41;;;;;;;;;;;19.00;58.40;;;;;;5040518;28;1312;-69
2023/12/05 01:55:07;;;;;;;;;;;19.00;58.40;;;;;;5047012;28;1470;-69
2023/12/05 01:57:32;;;;;;;;;;;19.00;58.40;;;;;;5037861;28;1458;-69
2023/12/05 01:59:58;;;;;;;;;;;19.00;58.40;;;;;;5044479;28;1514;-68
2023/12/05 02:02:24;;;;;;;;;;;19.00;58.40;;;;;;5040485;28;1268;-69
2023/12/05 02:04:49;;;;;;;;;;;19.00;58.40;;;;;;5036479;28;1977;-69
2023/12/05 02:07:14;;;;;;;;;;;19.00;58.40;;;;;;5038101;28;1285;-69
2023/12/05 02:09:40;;;;;;;;;;;19.00;58.40;;;;;;5025982;28;1307;-69
2023/12/05 02:12:05;;;;;;;;;;;19.00;58.40;;;;;;5038983;28;1567;-69
2023/12/05 02:14:31;;;;;;;;;;;18.90;58.40;;;;;;5041212;28;1365;-69
2023/12/05 02:16:58;;;;;;;;;;;18.90;58.40;;;;;;5041615;28;1272;-69
2023/12/05 02:19:30;;;;;;;;;;;18.90;58.40;;;;;;5038986;28;1381;-69
2023/12/05 02:21:56;;;;;;;;;;;18.90;58.40;;;;;;5037639;28;1337;-69
2023/12/05 02:24:45;;;;;;;;;;;18.90;58.50;;;;;;5036066;28;1608;-69
2023/12/05 02:27:20;;;;;;;;;;;18.90;58.50;;;;;;5039183;28;1256;-69
2023/12/05 02:29:49;;;;;;;;;;;18.90;58.50;;;;;;5036305;28;1591;-69
2023/12/05 02:32:14;;;;;;;;;;;18.90;58.50;;;;;;5040141;28;1436;-69
2023/12/05 02:34:40;;;;;;;;;;;18.90;58.50;;;;;;5039820;28;1691;-69
2023/12/05 02:37:08;;;;;;;;;;;18.90;58.50;;;;;;5035536;28;1302;-69
2023/12/05 02:39:54;;;;;;;;;;;18.90;58.50;;;;;;5037625;28;1137;-69
2023/12/05 02:42:19;;;;;;;;;;;18.90;58.80;;;;;;5038638;28;1389;-69
2023/12/05 02:44:46;;;;;;;;;;;18.90;58.50;;;;;;5037958;28;1973;-69
2023/12/05 02:47:12;;;;;;;;;;;18.90;58.50;;;;;;5035861;28;1351;-69
2023/12/05 02:49:37;;;;;;;;;;;18.90;58.60;;;;;;5039375;28;1370;-69
2023/12/05 02:52:03;;;;;;;;;;;18.90;58.60;;;;;;5038676;28;1285;-69
2023/12/05 02:54:28;;;;;;;;;;;18.90;58.60;;;;;;5038582;28;1551;-69
2023/12/05 02:56:54;;;;;;;;;;;18.90;58.60;;;;;;5039061;28;1423;-70
2023/12/05 02:59:19;;;;;;;;;;;18.90;58.60;;;;;;5038995;28;1325;-69
2023/12/05 03:01:44;;;;;;;;;;;18.90;58.60;;;;;;5037218;28;1442;-69
2023/12/05 03:04:10;;;;;;;;;;;18.90;58.70;;;;;;5038969;28;1376;-69
2023/12/05 03:06:35;;;;;;;;;;;18.90;58.70;;;;;;5036278;28;1913;-69
2023/12/05 03:09:03;;;;;;;;;;;18.90;58.70;;;;;;5040391;28;1210;-69
2023/12/05 03:11:29;;;;;;;;;;;18.90;58.70;;;;;;5039755;28;1453;-69
2023/12/05 03:13:54;;;;;;;;;;;18.90;58.70;;;;;;5037521;28;1194;-69
2023/12/05 03:16:20;;;;;;;;;;;18.90;58.70;;;;;;5040005;28;1344;-69
2023/12/05 03:18:45;;;;;;;;;;;18.90;58.70;;;;;;5038905;28;1290;-69
2023/12/05 03:21:15;;;;;;;;;;;18.90;58.70;;;;;;5042691;28;1366;-69
2023/12/05 03:23:40;;;;;;;;;;;18.90;58.70;;;;;;5039245;28;1118;-69
2023/12/05 03:26:06;;;;;;;;;;;18.90;58.70;;;;;;5023494;28;1964;-69
2023/12/05 03:28:32;;;;;;;;;;;18.90;58.80;;;;;;5037916;28;1373;-69
2023/12/05 03:30:57;;;;;;;;;;;18.90;58.80;;;;;;5038887;28;1351;-69
2023/12/05 03:33:23;;;;;;;;;;;18.90;58.80;;;;;;5037606;28;1388;-69
2023/12/05 03:35:48;;;;;;;;;;;18.90;58.80;;;;;;5036212;28;1291;-69
2023/12/05 03:38:14;;;;;;;;;;;18.90;58.80;;;;;;5039457;28;1362;-69
2023/12/05 03:40:39;;;;;;;;;;;18.90;58.70;;;;;;5035454;28;1506;-69
2023/12/05 03:43:05;;;;;;;;;;;18.90;58.70;;;;;;5036433;28;1085;-69
2023/12/05 03:45:30;;;;;;;;;;;18.90;58.70;;;;;;5034271;28;1906;-69
2023/12/05 03:47:55;;;;;;;;;;;18.90;58.70;;;;;;5039518;28;1537;-69
2023/12/05 03:50:21;;;;;;;;;;;18.90;58.70;;;;;;5038248;28;1469;-69
2023/12/05 03:52:47;;;;;;;;;;;18.90;58.60;;;;;;5039039;28;1531;-69
2023/12/05 03:55:12;;;;;;;;;;;18.90;58.60;;;;;;5036979;28;1193;-69
2023/12/05 03:57:38;;;;;;;;;;;18.90;58.70;;;;;;5037043;28;1368;-69
2023/12/05 04:00:04;;;;;;;;;;;18.90;58.60;;;;;;5034307;28;1487;-69
2023/12/05 04:02:29;;;;;;;;;;;18.90;58.70;;;;;;5066711;28;1640;-69
2023/12/05 04:04:55;;;;;;;;;;;18.90;58.70;;;;;;5038150;28;1909;-69
2023/12/05 04:07:20;;;;;;;;;;;18.90;58.70;;;;;;5039187;28;1533;-69
2023/12/05 04:09:46;;;;;;;;;;;18.90;58.70;;;;;;5039177;28;1274;-68
2023/12/05 04:12:12;;;;;;;;;;;18.90;58.70;;;;;;5035581;28;1583;-69
2023/12/05 04:14:38;;;;;;;;;;;18.90;58.80;;;;;;5037154;28;1631;-69
2023/12/05 04:17:03;;;;;;;;;;;18.90;58.70;;;;;;5038707;28;1248;-69
2023/12/05 04:19:29;;;;;;;;;;;18.90;58.70;;;;;;5034566;28;1410;-69
2023/12/05 04:21:54;;;;;;;;;;;18.90;58.70;;;;;;5037172;28;1305;-68
2023/12/05 04:24:20;;;;;;;;;;;18.90;58.70;;;;;;5069286;28;1417;-70
2023/12/05 04:26:46;;;;;;;;;;;18.90;58.80;;;;;;5035863;28;1914;-69
2023/12/05 04:29:11;;;;;;;;;;;18.90;58.80;;;;;;5039136;28;1266;-69
2023/12/05 04:31:37;;;;;;;;;;;18.90;58.80;;;;;;5035343;28;1521;-69
2023/12/05 04:34:02;;;;;;;;;;;18.90;58.80;;;;;;5033702;28;1480;-69
2023/12/05 04:36:27;;;;;;;;;;;18.90;58.80;;;;;;5035928;28;1391;-69
2023/12/05 04:38:53;;;;;;;;;;;18.90;58.80;;;;;;5034491;28;1281;-69
2023/12/05 04:41:18;;;;;;;;;;;18.90;58.80;;;;;;5037963;28;1202;-69
2023/12/05 04:43:44;;;;;;;;;;;18.90;58.80;;;;;;5039369;28;1656;-69
2023/12/05 04:46:09;;;;;;;;;;;18.90;58.80;;;;;;5035699;28;1906;-70
2023/12/05 04:48:35;;;;;;;;;;;18.90;58.80;;;;;;5036263;28;1488;-69
2023/12/05 04:51:00;;;;;;;;;;;18.90;58.80;;;;;;5039131;28;1270;-69
2023/12/05 04:53:26;;;;;;;;;;;18.90;58.80;;;;;;5039385;28;1211;-69
2023/12/05 04:55:51;;;;;;;;;;;18.90;58.80;;;;;;5036393;28;1355;-69
2023/12/05 04:58:16;;;;;;;;;;;18.90;58.90;;;;;;5037830;28;1359;-69
2023/12/05 05:00:42;;;;;;;;;;;18.80;58.80;;;;;;5037740;28;1235;-69
2023/12/05 05:03:07;;;;;;;;;;;18.80;58.80;;;;;;5036577;28;1465;-69
2023/12/05 05:05:33;;;;;;;;;;;18.80;58.80;;;;;;5036085;28;1902;-69
2023/12/05 05:07:59;;;;;;;;;;;18.80;58.80;;;;;;5034735;28;1299;-69
2023/12/05 05:10:24;;;;;;;;;;;18.80;59.00;;;;;;5035911;28;1684;-69
2023/12/05 05:12:50;;;;;;;;;;;18.90;59.00;;;;;;5037005;28;1542;-69
2023/12/05 05:15:15;;;;;;;;;;;19.00;59.00;;;;;;5067293;28;1453;-69
2023/12/05 05:17:40;;;;;;;;;;;19.10;59.00;;;;;;5034858;28;1312;-69
2023/12/05 05:20:06;;;;;;;;;;;19.10;58.90;;;;;;5038824;28;1648;-69
2023/12/05 05:22:32;;;;;;;;;;;19.30;58.70;;;;;;5034563;28;1344;-69
2023/12/05 05:24:58;;;;;;;;;;;19.50;58.40;;;;;;5038483;28;1906;-69
2023/12/05 05:27:23;;;;;;;;;;;19.60;58.00;;;;;;5067249;28;1454;-69
2023/12/05 05:29:49;;;;;;;;;;;19.80;57.70;;;;;;5039728;28;1112;-69
2023/12/05 05:32:14;;;;;;;;;;;19.90;57.30;;;;;;5036675;28;1463;-69
2023/12/05 05:34:40;;;;;;;;;;;20.10;57.10;;;;;;5037915;28;1497;-70
2023/12/05 05:37:05;;;;;;;;;;;20.30;56.80;;;;;;5019020;28;1446;-69
2023/12/05 05:39:30;;;;;;;;;;;20.40;56.50;;;;;;5035257;28;1241;-70
2023/12/05 05:41:56;;;;;;;;;;;20.60;56.90;;;;;;5037901;28;1591;-69
2023/12/05 05:44:21;;;;;;;;;;;20.70;56.00;;;;;;5035233;28;1555;-69
2023/12/05 05:46:47;;;;;;;;;;;20.80;55.80;;;;;;5040603;28;1960;-69
2023/12/05 05:49:13;;;;;;;;;;;20.90;55.50;;;;;;5040908;28;1338;-69
2023/12/05 05:51:38;;;;;;;;;;;21.00;55.30;;;;;;5042141;28;1571;-69
2023/12/05 05:54:04;;;;;;;;;;;21.10;55.10;;;;;;5038804;28;1176;-69
2023/12/05 05:56:29;;;;;;;;;;;21.10;54.90;;;;;;5041912;28;1314;-69
2023/12/05 05:58:55;;;;;;;;;;;21.20;54.70;;;;;;5041017;28;1364;-69
2023/12/05 06:01:20;;;;;;;;;;;21.20;54.60;;;;;;5040268;28;1245;-69
2023/12/05 06:03:46;;;;;;;;;;;21.30;54.60;;;;;;5040674;28;1515;-69
2023/12/05 06:06:11;;;;;;;;;;;21.30;54.60;;;;;;5040291;28;1938;-69
2023/12/05 06:08:36;;;;;;;;;;;21.30;54.40;;;;;;5037546;28;1605;-69
2023/12/05 06:11:02;;;;;;;;;;;21.30;54.40;;;;;;5037867;28;1532;-69
2023/12/05 06:13:27;;;;;;;;;;;21.30;54.40;;;;;;5036526;28;1446;-69
2023/12/05 06:15:53;;;;;;;;;;;21.30;54.50;;;;;;5040953;28;1355;-69
2023/12/05 06:18:19;;;;;;;;;;;21.30;54.50;;;;;;5040070;28;1292;-70
2023/12/05 06:20:44;;;;;;;;;;;21.30;54.40;;;;;;5039882;28;1368;-69
2023/12/05 06:23:10;;;;;;;;;;;21.30;54.50;;;;;;5038167;28;1254;-69
2023/12/05 06:25:35;;;;;;;;;;;21.30;54.50;;;;;;5038055;28;1898;-69
2023/12/05 06:28:01;;;;;;;;;;;21.30;54.40;;;;;;5039085;28;1548;-70
2023/12/05 06:30:27;;;;;;;;;;;21.30;54.50;;;;;;5042000;28;1345;-69
2023/12/05 06:32:52;;;;;;;;;;;21.30;54.50;;;;;;5039216;28;1260;-69
2023/12/05 06:35:18;;;;;;;;;;;21.20;54.40;;;;;;5041368;28;1028;-69
2023/12/05 06:37:43;;;;;;;;;;;21.20;54.50;;;;;;5037539;28;1438;-71
2023/12/05 06:40:09;;;;;;;;;;;21.20;54.50;;;;;;5031355;28;1881;-70
2023/12/05 06:42:35;;;;;;;;;;;21.20;54.50;;;;;;5041937;28;1432;-70
2023/12/05 06:45:01;;;;;;;;;;;21.20;54.60;;;;;;5038906;28;1964;-69
2023/12/05 06:47:27;;;;;;;;;;;21.20;54.60;;;;;;5046538;28;1492;-69
2023/12/05 06:49:52;;;;;;;;;;;21.10;54.70;;;;;;5038167;28;1273;-70
2023/12/05 06:52:19;;;;;;;;;;;21.10;54.80;;;;;;5039752;28;1342;-68
2023/12/05 06:54:45;;;;;;;;;;;21.10;54.80;;;;;;5040820;28;1471;-71
2023/12/05 06:57:10;;;;;;;;;;;21.10;54.80;;;;;;5036172;28;1307;-70
2023/12/05 06:59:37;;;;;;;;;;;21.00;53.70;;;;;;5036507;28;1451;-72
2023/12/05 07:02:02;;;;;;;;;;;21.00;49.20;;;;;;5038056;28;1336;-70
2023/12/05 07:04:28;;;;;;;;;;;20.90;50.00;;;;;;5038293;28;1547;-70
2023/12/05 07:06:53;;;;;;;;;;;20.80;50.40;;;;;;5036044;28;1910;-69
2023/12/05 07:09:19;;;;;;;;;;;20.80;50.90;;;;;;5035083;28;1381;-69
2023/12/05 07:11:45;;;;;;;;;;;20.80;51.40;;;;;;5038300;28;1626;-67
2023/12/05 07:14:13;;;;;;;;;;;20.80;51.70;;;;;;5039199;28;1522;-68
2023/12/05 07:16:38;;;;;;;;;;;20.70;52.00;;;;;;5035992;28;1331;-67
2023/12/05 07:19:04;;;;;;;;;;;20.70;52.30;;;;;;5039142;28;947;-69
2023/12/05 07:21:29;;;;;;;;;;;20.70;52.60;;;;;;5024940;28;1494;-68
2023/12/05 07:23:55;;;;;;;;;;;20.70;52.80;;;;;;5037905;28;1252;-69
2023/12/05 07:26:20;;;;;;;;;;;20.70;53.00;;;;;;5037527;28;1910;-69
2023/12/05 07:28:46;;;;;;;;;;;20.60;53.20;;;;;;5036966;28;1483;-70
2023/12/05 07:31:11;;;;;;;;;;;20.60;53.40;;;;;;5070420;28;1470;-69
2023/12/05 07:33:37;;;;;;;;;;;20.60;53.50;;;;;;5042381;28;1684;-69
2023/12/05 07:36:05;;;;;;;;;;;20.60;53.70;;;;;;5041298;28;1498;-69
2023/12/05 07:38:32;;;;;;;;;;;20.50;53.80;;;;;;5037810;28;1278;-69
2023/12/05 07:40:57;;;;;;;;;;;20.50;53.90;;;;;;5040162;28;1486;-69
2023/12/05 07:43:23;;;;;;;;;;;20.50;54.10;;;;;;5040083;28;1288;-69
2023/12/05 07:45:49;;;;;;;;;;;20.50;54.20;;;;;;5040071;28;1974;-69
2023/12/05 07:48:15;;;;;;;;;;;20.50;54.30;;;;;;5038600;28;1568;-69
2023/12/05 07:50:40;;;;;;;;;;;20.40;54.40;;;;;;5038723;28;1384;-69
2023/12/05 07:53:06;;;;;;;;;;;20.40;54.40;;;;;;5042007;28;1403;-69
2023/12/05 07:55:31;;;;;;;;;;;20.40;54.50;;;;;;5041520;28;1111;-69
2023/12/05 07:57:57;;;;;;;;;;;20.40;54.60;;;;;;5040734;28;1310;-68
2023/12/05 08:00:22;;;;;;;;;;;20.40;54.70;;;;;;5037400;28;1610;-69
2023/12/05 08:02:47;;;;;;;;;;;20.40;54.70;;;;;;5036034;28;1869;-69
2023/12/05 08:05:13;;;;;;;;;;;20.30;54.80;;;;;;5036993;28;1965;-69
2023/12/05 08:07:38;;;;;;;;;;;20.30;54.80;;;;;;5036529;28;1487;-69
2023/12/05 08:10:07;;;;;;;;;;;20.30;54.90;;;;;;5034509;28;1114;-69
2023/12/05 08:12:33;;;;;;;;;;;20.30;55.00;;;;;;5033407;28;1252;-69
2023/12/05 08:14:59;;;;;;;;;;;20.30;55.00;;;;;;5039528;28;1257;-69
2023/12/05 08:17:24;;;;;;;;;;;20.30;55.10;;;;;;5044417;28;1464;-69
2023/12/05 08:19:50;;;;;;;;;;;20.30;55.20;;;;;;5038216;28;1230;-69
2023/12/05 08:22:15;;;;;;;;;;;20.30;55.20;;;;;;5035677;28;1266;-69
2023/12/05 08:24:41;;;;;;;;;;;20.20;55.20;;;;;;5036693;28;1387;-69
2023/12/05 08:27:07;;;;;;;;;;;20.20;55.20;;;;;;5038308;28;1970;-69
2023/12/05 08:29:32;;;;;;;;;;;20.20;55.30;;;;;;5038048;28;1104;-69
2023/12/05 08:31:58;;;;;;;;;;;20.20;55.30;;;;;;5037288;28;1487;-70
2023/12/05 08:34:24;;;;;;;;;;;20.20;55.30;;;;;;5037181;28;1472;-70
2023/12/05 08:36:49;;;;;;;;;;;20.20;55.40;;;;;;5039034;28;1554;-69
2023/12/05 08:39:15;;;;;;;;;;;20.20;55.50;;;;;;5034659;28;1850;-69
2023/12/05 08:41:40;;;;;;;;;;;20.20;55.50;;;;;;5035154;28;2088;-69
2023/12/05 08:44:06;;;;;;;;;;;20.20;55.50;;;;;;5036683;28;1399;-68
2023/12/05 08:46:32;;;;;;;;;;;20.10;55.50;;;;;;5035723;28;1965;-68
2023/12/05 08:48:57;;;;;;;;;;;20.10;55.60;;;;;;5034385;28;2127;-69
2023/12/05 08:51:23;;;;;;;;;;;20.10;55.60;;;;;;5038625;28;1324;-69
2023/12/05 08:53:48;;;;;;;;;;;20.10;55.60;;;;;;5043897;28;1877;-69
2023/12/05 08:56:13;;;;;;;;;;;20.10;55.70;;;;;;5035466;28;1957;-69
2023/12/05 08:58:39;;;;;;;;;;;20.10;55.70;;;;;;5036905;28;1839;-69
2023/12/05 09:01:04;;;;;;;;;;;20.10;56.30;;;;;;5036974;28;1520;-69
2023/12/05 09:03:30;;;;;;;;;;;20.10;56.60;;;;;;5037799;28;1343;-69
2023/12/05 09:05:55;;;;;;;;;;;20.10;56.60;;;;;;5038214;28;1921;-70
2023/12/05 09:08:21;;;;;;;;;;;20.10;56.90;;;;;;5039223;28;1384;-69
2023/12/05 09:10:46;;;;;;;;;;;20.10;56.90;;;;;;5036068;28;1920;-70
2023/12/05 09:13:12;;;;;;;;;;;20.10;57.30;;;;;;5035860;28;1919;-70
2023/12/05 09:15:38;;;;;;;;;;;20.10;57.20;;;;;;5035691;28;1587;-70
2023/12/05 09:18:03;;;;;;;;;;;20.10;57.10;;;;;;5038470;28;1531;-70
2023/12/05 09:20:29;;;;;;;;;;;20.20;57.20;;;;;;5038064;28;1374;-70
2023/12/05 09:22:54;;;;;;;;;;;20.20;57.30;;;;;;5039555;28;1339;-69
2023/12/05 09:25:20;;;;;;;;;;;20.20;57.40;;;;;;5042088;28;1967;-69
2023/12/05 09:27:45;;;;;;;;;;;20.10;57.40;;;;;;5040419;28;1295;-70
2023/12/05 09:30:12;;;;;;;;;;;20.10;57.50;;;;;;5041665;28;1387;-70
2023/12/05 09:32:37;;;;;;;;;;;20.10;57.50;;;;;;5042405;28;1359;-69
2023/12/05 09:35:03;;;;;;;;;;;20.10;57.60;;;;;;5042710;28;1183;-69
2023/12/05 09:37:28;;;;;;;;;;;20.10;57.60;;;;;;5041623;28;1287;-69
2023/12/05 09:39:54;;;;;;;;;;;20.10;57.60;;;;;;5038666;28;852;-69
2023/12/05 09:42:19;;;;;;;;;;;20.10;57.60;;;;;;5039746;28;1275;-69
2023/12/05 09:44:46;;;;;;;;;;;20.10;57.70;;;;;;5040575;28;1371;-69
2023/12/05 09:47:11;;;;;;;;;;;20.10;57.70;;;;;;5040354;28;1985;-69
2023/12/05 09:49:37;;;;;;;;;;;20.10;57.80;;;;;;5048308;28;1715;-70
2023/12/05 09:52:02;;;;;;;;;;;20.10;57.90;;;;;;5040305;28;1289;-69
2023/12/05 09:54:28;;;;;;;;;;;20.10;57.90;;;;;;5037689;28;1269;-69
2023/12/05 09:56:54;;;;;;;;;;;20.10;58.00;;;;;;5040709;28;1616;-70
2023/12/05 09:59:20;;;;;;;;;;;20.10;58.10;;;;;;5039199;28;1059;-69
2023/12/05 10:01:45;;;;;;;;;;;20.10;58.10;;;;;;5038410;28;1859;-70
2023/12/05 10:04:11;;;;;;;;;;;20.10;58.10;;;;;;5038019;28;1384;-70
2023/12/05 10:06:37;;;;;;;;;;;20.10;58.10;;;;;;5039390;28;1890;-70
2023/12/05 10:09:03;;;;;;;;;;;20.10;58.10;;;;;;5038466;28;1879;-70
2023/12/05 10:11:28;;;;;;;;;;;20.10;58.10;;;;;;5041065;28;1400;-70
2023/12/05 10:13:54;;;;;;;;;;;20.10;58.20;;;;;;5023592;28;1278;-70
2023/12/05 10:16:19;;;;;;;;;;;20.10;58.20;;;;;;5039251;28;1296;-69
2023/12/05 10:18:45;;;;;;;;;;;20.10;58.20;;;;;;5039779;28;1389;-69
2023/12/05 10:21:11;;;;;;;;;;;20.10;58.20;;;;;;5037600;28;1266;-69
2023/12/05 10:23:37;;;;;;;;;;;20.10;58.20;;;;;;5036424;28;1249;-69
2023/12/05 10:26:03;;;;;;;;;;;20.20;58.30;;;;;;5040179;28;1883;-69
2023/12/05 10:28:28;;;;;;;;;;;20.10;58.30;;;;;;5037004;28;1462;-70
2023/12/05 10:30:54;;;;;;;;;;;20.10;58.30;;;;;;5038536;28;1348;-67
2023/12/05 10:33:20;;;;;;;;;;;20.10;58.40;;;;;;5040578;28;1340;-68
2023/12/05 10:35:46;;;;;;;;;;;20.10;58.50;;;;;;5038159;28;1455;-69
2023/12/05 10:38:12;;;;;;;;;;;20.20;58.50;;;;;;5038174;28;1528;-69
2023/12/05 10:40:54;;;;;;;;;;;20.10;58.50;;;;;;5053683;28;1486;-69
2023/12/05 10:43:20;;;;;;;;;;;20.10;58.50;;;;;;5036116;28;1160;-69
2023/12/05 10:45:46;;;;;;;;;;;20.10;58.60;;;;;;5040022;28;1983;-69
2023/12/05 10:48:14;;;;;;;;;;;20.10;58.60;;;;;;5037265;28;1406;-69
2023/12/05 10:50:40;;;;;;;;;;;20.10;58.60;;;;;;5039266;28;1236;-70
2023/12/05 10:53:06;;;;;;;;;;;20.10;58.70;;;;;;5038350;28;1061;-69
2023/12/05 10:55:32;;;;;;;;;;;20.10;58.60;;;;;;5039814;28;1261;-69
2023/12/05 10:57:58;;;;;;;;;;;20.10;58.70;;;;;;5036417;28;1564;-69
2023/12/05 11:00:24;;;;;;;;;;;20.10;58.80;;;;;;5035762;28;1491;-69
2023/12/05 11:02:49;;;;;;;;;;;20.10;58.80;;;;;;5036542;28;1487;-68
2023/12/05 11:05:15;;;;;;;;;;;20.10;58.90;;;;;;5036398;28;1959;-69
2023/12/05 11:07:40;;;;;;;;;;;20.10;59.00;;;;;;5018765;28;1859;-69
2023/12/05 11:10:07;;;;;;;;;;;20.10;59.20;;;;;;5033796;28;1311;-69
2023/12/05 11:12:33;;;;;;;;;;;20.10;59.40;;;;;;5039923;28;1434;-69
2023/12/05 11:14:59;;;;;;;;;;;20.10;59.50;;;;;;5038966;28;1371;-69
2023/12/05 11:17:27;;;;;;;;;;;20.10;60.20;;;;;;5039341;28;1375;-69
2023/12/05 11:20:19;;;;;;;;;;;20.10;60.10;;;;;;5036946;28;1497;-70
2023/12/05 11:22:47;;;;;;;;;;;20.20;60.40;;;;;;5029868;28;1564;-69
2023/12/05 11:25:22;;;;;;;;;;;20.20;60.30;;;;;;5035255;28;1959;-69
2023/12/05 11:27:48;;;;;;;;;;;20.20;60.30;;;;;;5039132;28;1347;-69
2023/12/05 11:30:32;;;;;;;;;;;20.20;60.20;;;;;;5038235;28;1452;-69
2023/12/05 11:33:15;;;;;;;;;;;20.20;60.00;;;;;;5038466;28;1448;-69
2023/12/05 11:35:48;;;;;;;;;;;20.20;59.90;;;;;;5037297;28;1358;-69
2023/12/05 11:38:14;;;;;;;;;;;20.20;59.90;;;;;;5036088;28;1375;-69
2023/12/05 11:40:39;;;;;;;;;;;20.30;60.00;;;;;;5037270;28;1570;-69
2023/12/05 11:43:05;;;;;;;;;;;20.30;59.70;;;;;;5040485;28;1318;-69
2023/12/05 11:45:31;;;;;;;;;;;20.30;59.70;;;;;;5037902;28;1922;-69
2023/12/05 11:48:00;;;;;;;;;;;20.30;59.60;;;;;;5037854;28;1658;-70
2023/12/05 11:50:26;;;;;;;;;;;20.30;59.60;;;;;;5038367;28;1469;-69
2023/12/05 11:52:52;;;;;;;;;;;20.30;59.60;;;;;;5037445;28;1793;-70
2023/12/05 11:55:18;;;;;;;;;;;20.30;59.50;;;;;;5037767;28;1198;-70
2023/12/05 11:57:43;;;;;;;;;;;20.30;59.50;;;;;;5045035;28;1468;-70
2023/12/05 12:00:10;;;;;;;;;;;20.30;59.60;;;;;;5034958;28;1266;-70
2023/12/05 12:02:36;;;;;;;;;;;20.30;59.60;;;;;;5039169;28;1202;-69
2023/12/05 12:05:05;;;;;;;;;;;20.30;59.60;;;;;;5039828;28;1703;-68
2023/12/05 12:07:30;;;;;;;;;;;20.30;59.60;;;;;;5039151;28;1387;-69
2023/12/05 12:09:56;;;;;;;;;;;20.30;59.60;;;;;;5038673;28;1429;-68
2023/12/05 12:12:22;;;;;;;;;;;20.40;59.70;;;;;;5039229;28;1413;-69
2023/12/05 12:14:48;;;;;;;;;;;20.40;59.70;;;;;;5036366;28;1475;-69
2023/12/05 12:17:14;;;;;;;;;;;20.40;59.70;;;;;;5046241;28;1403;-68
2023/12/05 12:19:39;;;;;;;;;;;20.40;59.70;;;;;;5033686;28;1351;-69
2023/12/05 12:22:08;;;;;;;;;;;20.40;59.70;;;;;;5037673;28;902;-69
2023/12/05 12:24:34;;;;;;;;;;;20.40;59.70;;;;;;5036076;28;1265;-69
2023/12/05 12:26:59;;;;;;;;;;;20.30;59.70;;;;;;5038380;28;1989;-69
2023/12/05 12:29:25;;;;;;;;;;;20.30;59.60;;;;;;5034803;28;1303;-69
2023/12/05 12:31:52;;;;;;;;;;;20.30;59.60;;;;;;5037397;28;1612;-69
2023/12/05 12:34:21;;;;;;;;;;;20.30;59.60;;;;;;5037200;28;1416;-69
2023/12/05 12:36:48;;;;;;;;;;;20.30;59.70;;;;;;5044280;28;1442;-69
2023/12/05 12:39:15;;;;;;;;;;;20.40;59.60;;;;;;5043646;28;1942;-69
2023/12/05 12:41:41;;;;;;;;;;;20.40;59.70;;;;;;5037598;28;1362;-68
2023/12/05 12:44:08;;;;;;;;;;;20.40;59.70;;;;;;5040406;28;2006;-69
2023/12/05 12:46:34;;;;;;;;;;;20.40;59.70;;;;;;5035234;28;1906;-69
2023/12/05 12:49:02;;;;;;;;;;;20.30;59.70;;;;;;5036793;28;1324;-69
2023/12/05 12:51:28;;;;;;;;;;;20.30;59.70;;;;;;5035571;28;1365;-69
2023/12/05 12:53:54;;;;;;;;;;;20.30;59.60;;;;;;5034551;28;1314;-69
2023/12/05 12:56:20;;;;;;;;;;;20.30;59.60;;;;;;5036028;28;1371;-69
2023/12/05 12:58:45;;;;;;;;;;;20.30;59.60;;;;;;5041381;28;1485;-69
2023/12/05 13:01:13;;;;;;;;;;;20.30;59.60;;;;;;5043224;28;1510;-69
2023/12/05 13:03:42;;;;;;;;;;;20.30;59.60;;;;;;5041923;28;1338;-69
2023/12/05 13:06:07;;;;;;;;;;;20.30;59.60;;;;;;5042699;28;1895;-70
2023/12/05 13:08:33;;;;;;;;;;;20.30;59.70;;;;;;5040004;28;1355;-71
2023/12/05 13:56:57;;;;;;;;;;;20.10;60.50;;;;;;5038770;28;1397;-71
2023/12/05 13:59:22;;;;;;;;;;;20.10;60.50;;;;;;5036156;28;1259;-70
2023/12/05 14:01:48;;;;;;;;;;;20.10;60.50;;;;;;5072122;28;1383;-70
2023/12/05 14:04:15;;;;;;;;;;;20.10;60.60;;;;;;5037829;28;1502;-71
2023/12/05 14:06:42;;;;;;;;;;;20.10;60.70;;;;;;5024738;28;1906;-71
2023/12/05 14:09:07;;;;;;;;;;;20.10;60.70;;;;;;5039190;28;1476;-71
2023/12/05 14:11:33;;;;;;;;;;;20.10;60.90;;;;;;5038721;28;1450;-71
2023/12/05 14:13:59;;;;;;;;;;;20.10;60.80;;;;;;5038097;28;1363;-71
2023/12/05 14:16:24;;;;;;;;;;;20.10;60.70;;;;;;5043153;28;1720;-71
2023/12/05 14:18:50;;;;;;;;;;;20.10;61.20;;;;;;5036851;28;1696;-71
2023/12/05 14:21:15;;;;;;;;;;;20.10;61.00;;;;;;5040724;28;1465;-70
2023/12/05 14:23:40;;;;;;;;;;;20.10;61.20;;;;;;5039050;28;1221;-71
2023/12/05 14:26:06;;;;;;;;;;;20.10;60.80;;;;;;5041135;28;1997;-71
2023/12/05 14:28:32;;;;;;;;;;;20.10;60.70;;;;;;5041013;28;1576;-71
2023/12/05 14:30:58;;;;;;;;;;;20.20;60.70;;;;;;5037279;28;1544;-71
2023/12/05 14:33:23;;;;;;;;;;;20.20;60.50;;;;;;5037864;28;1400;-71
2023/12/05 14:35:49;;;;;;;;;;;20.20;60.50;;;;;;5036949;28;1656;-71
2023/12/05 14:38:17;;;;;;;;;;;20.20;60.40;;;;;;5035231;28;1957;-72
2023/12/05 14:40:43;;;;;;;;;;;20.20;60.50;;;;;;5039441;28;1412;-71
2023/12/05 14:43:08;;;;;;;;;;;20.20;60.40;;;;;;5037304;28;1234;-71
2023/12/05 14:45:34;;;;;;;;;;;20.20;60.70;;;;;;5041204;28;1968;-71
2023/12/05 14:47:59;;;;;;;;;;;20.20;60.50;;;;;;5039685;28;1332;-71
2023/12/05 14:50:24;;;;;;;;;;;20.20;60.70;;;;;;5037426;28;891;-71
2023/12/05 14:52:50;;;;;;;;;;;20.20;60.70;;;;;;5040074;28;991;-71
2023/12/05 14:55:15;;;;;;;;;;;20.20;61.60;;;;;;5038302;28;1397;-71
2023/12/05 14:57:41;;;;;;;;;;;20.20;60.90;;;;;;5042293;28;1339;-71
2023/12/05 15:00:07;;;;;;;;;;;20.20;61.00;;;;;;5038815;28;1369;-71
2023/12/05 15:02:34;;;;;;;;;;;20.20;61.00;;;;;;5041497;28;1415;-71
2023/12/05 15:05:00;;;;;;;;;;;20.20;61.00;;;;;;5041032;28;1403;-71
2023/12/05 15:07:25;;;;;;;;;;;20.20;61.00;;;;;;5038673;28;1972;-71
2023/12/05 15:09:51;;;;;;;;;;;20.10;61.00;;;;;;5038448;28;1579;-69